Ardmore, Maryland
Current Conditions -  °F | °C
As of 2:40 AM on Monday 24 Nov 2014 (Local Time) from KCGS Reporting Station
Overcast Overcast  
Wind Chill: 63°   Ceiling: 1100
Heat Index: 63°   Visibility: 10mi
Dew Point: 61°   Wind: 12mph
Humidity: 94%   Direction: 170°S
Pressure: 29.66"   Gusts: 20mph
Location:  38.9183°N, 76.8721°W
Report Text: KCGS 240740Z AUTO 17010G17KT 10SM OVC011 17/16 A2966 RMK AO1
Loading
Personal Weather Stations






























Interactive Weather Map New forecast layout! Learn more

10-Day Weather Forecast

Advertisements
Track Severe Weather on mobile